Gregory — WDF2419 — position and weather

sailwx.info

Track history (hours):
 
Tides and Currents Weather Stations Pressure Air Temp Water Temp Dewpoint Dewpoint Depression Visibility Wind Speed Wind Dir Waves Ship Positions

Gregory

Owner: Enterprise Marine Services, LLC, San Antonio, TX. More information available from US FCC via Universal Licensing System and Coast Guard Vessel Documentation Center.

Last reported at 2017-Dec-30 05:16 UTC. Time now 2018-Feb-22 07:21 UTC.
Position N 29°33' W 090°24'.
Warning: this ship's position is 54 days out of date.

Length 21 m; draft 3 m.

Type: . MMSI: 367003370.

Date/timePositionNaut miles runAvg speedWind from/ knotsBaromVisibWave heightAir tempDewpointWater temp
2017-Dec-30 05:16N 29°33' W 090°24'2 5.7
2017-Dec-30 05:00N 29°33' W 090°26'3 5.6
2017-Dec-30 04:30N 29°34' W 090°29'3 5.6
2017-Dec-30 04:00N 29°34' W 090°32'3 5.5
2017-Dec-30 03:30N 29°35' W 090°35'3 5.2
2017-Dec-30 03:00N 29°35' W 090°38'2 4.8
2017-Dec-30 02:30N 29°36' W 090°41'2 3.2
2017-Dec-30 02:00N 29°36' W 090°43'2 4.3
2017-Dec-30 01:30N 29°34' W 090°43'1 2.6
2017-Dec-30 01:00N 29°33' W 090°42'1 1.5
2017-Dec-30 00:30N 29°34' W 090°43'1 2.1
2017-Dec-30 00:00N 29°35' W 090°43'0 0.0
2017-Dec-29 23:30N 29°35' W 090°43'0 0.0
2017-Dec-29 23:01N 29°35' W 090°43'0 0.0
2017-Dec-29 22:30N 29°35' W 090°43'0 0.0
2017-Dec-29 22:00N 29°35' W 090°43'1 2.3
2017-Dec-29 21:30N 29°34' W 090°43'0 0.2
2017-Dec-29 21:00N 29°34' W 090°43'0 0.0
2017-Dec-29 20:30N 29°34' W 090°43'0 0.2
2017-Dec-29 20:00N 29°34' W 090°43'0 0.0
2017-Dec-29 19:30N 29°34' W 090°43'0 0.0
2017-Dec-29 19:00N 29°34' W 090°43'0 0.0
2017-Dec-29 18:30N 29°34' W 090°43'0 0.0
2017-Dec-29 18:00N 29°34' W 090°43'0 0.0
2017-Dec-29 17:30N 29°34' W 090°43'0 0.0
2017-Dec-29 17:00N 29°34' W 090°43'0 0.0
2017-Dec-29 16:30N 29°34' W 090°43'0 0.0
2017-Dec-29 16:00N 29°34' W 090°43'0 0.0
2017-Dec-29 15:30N 29°34' W 090°43'0 0.0
2017-Dec-29 15:00N 29°34' W 090°43'0 0.0
2017-Dec-29 14:30N 29°34' W 090°43'0 0.0
2017-Dec-29 14:00N 29°34' W 090°43'0 0.0
2017-Dec-29 13:30N 29°34' W 090°43'0 0.0
2017-Dec-29 13:00N 29°34' W 090°43'0 0.0
2017-Dec-29 12:30N 29°34' W 090°43'0 0.0
2017-Dec-29 12:00N 29°34' W 090°43'0 0.0
2017-Dec-29 11:30N 29°34' W 090°43'0 0.0
2017-Dec-29 11:00N 29°34' W 090°43'0 0.0
2017-Dec-29 10:30N 29°34' W 090°43'0 0.0
2017-Dec-29 10:00N 29°34' W 090°43'0 0.0
2017-Dec-29 09:30N 29°34' W 090°43'0 0.0
2017-Dec-29 09:00N 29°34' W 090°43'0 0.0
2017-Dec-29 08:30N 29°34' W 090°43'0 0.0
2017-Dec-29 08:00N 29°34' W 090°43'0 0.0
2017-Dec-29 07:30N 29°34' W 090°43'0 0.0
2017-Dec-29 06:59N 29°34' W 090°43'0 0.0
2017-Dec-29 06:19N 29°34' W 090°43'0 0.0
2017-Dec-29 05:57N 29°34' W 090°43'0 0.0
2017-Dec-29 05:30N 29°34' W 090°43'0 0.0
2017-Dec-29 04:50N 29°34' W 090°43'0 0.0
2017-Dec-29 04:29N 29°34' W 090°43'0 0.0
2017-Dec-29 03:55N 29°34' W 090°43'0 0.0
2017-Dec-29 03:29N 29°34' W 090°43'0 0.0
2017-Dec-29 02:48N 29°34' W 090°43'1 0.8
2017-Dec-29 01:33N 29°34' W 090°44'3 6.4
2017-Dec-29 01:06N 29°32' W 090°47'1 3.5
2017-Dec-29 00:53N 29°32' W 090°47'4 5.8
2017-Dec-29 00:10N 29°32' W 090°52'2 6.8
2017-Dec-28 23:57N 29°33' W 090°54'3 7.1
2017-Dec-28 23:30N 29°34' W 090°57'55 1.2
2017-Dec-27 00:07N 29°50' W 091°57'1 6.9
2017-Dec-26 23:57N 29°50' W 091°59'3 7.0
2017-Dec-26 23:30N 29°49' W 092°02'3 7.0
2017-Dec-26 23:00N 29°48' W 092°06'3 6.8
2017-Dec-26 22:30N 29°47' W 092°10'2 4.8
2017-Dec-26 22:00N 29°47' W 092°12'1 1.0
2017-Dec-26 21:30N 29°47' W 092°13'0 0.6
2017-Dec-26 21:00N 29°47' W 092°13'0 0.0
2017-Dec-26 20:30N 29°47' W 092°13'0 0.0
2017-Dec-26 20:00N 29°47' W 092°13'0 0.0
2017-Dec-26 19:30N 29°47' W 092°13'0 0.0
2017-Dec-26 19:00N 29°47' W 092°13'0 0.0
2017-Dec-26 18:30N 29°47' W 092°13'2 4.1
2017-Dec-26 18:00N 29°48' W 092°15'3 6.1
2017-Dec-26 17:30N 29°50' W 092°18'3 5.2
2017-Dec-26 16:53N 29°51' W 092°22'40 4.7
2017-Dec-26 08:26N 29°56' W 093°07'2 5.2
2017-Dec-26 07:59N 29°56' W 093°10'3 5.8
2017-Dec-26 07:30N 29°58' W 093°12'2 4.8
2017-Dec-26 07:00N 30°00' W 093°14'2 3.1
2017-Dec-26 06:30N 30°02' W 093°14'0 0.0
2017-Dec-26 06:00N 30°02' W 093°14'0 0.3
2017-Dec-26 05:30N 30°02' W 093°14'0 0.1
2017-Dec-26 05:00N 30°02' W 093°14'2 3.3
2017-Dec-26 04:30N 30°03' W 093°16'2 4.2
2017-Dec-26 04:00N 30°05' W 093°17'1 2.3
2017-Dec-26 03:30N 30°05' W 093°18'1 2.0
2017-Dec-26 03:00N 30°06' W 093°19'0 0.2
2017-Dec-26 02:30N 30°06' W 093°19'0 0.0
2017-Dec-26 02:00N 30°06' W 093°19'0 0.0
2017-Dec-26 01:30N 30°06' W 093°19'0 0.0
2017-Dec-26 01:00N 30°06' W 093°19'0 0.0
2017-Dec-26 00:30N 30°06' W 093°19'0 0.0
2017-Dec-26 00:00N 30°06' W 093°19'0 0.0
2017-Dec-25 23:30N 30°06' W 093°19'0 0.0
2017-Dec-25 23:00N 30°06' W 093°19'0 0.0
2017-Dec-25 22:30N 30°06' W 093°19'0 0.0
2017-Dec-25 22:00N 30°06' W 093°19'0 0.0
2017-Dec-25 21:30N 30°06' W 093°19'0 0.0
2017-Dec-25 21:00N 30°06' W 093°19'0 0.0
2017-Dec-25 20:30N 30°06' W 093°19'0 0.0
2017-Dec-25 20:00N 30°06' W 093°19'0 0.0
2017-Dec-25 19:30N 30°06' W 093°19'0 0.0
2017-Dec-25 19:00N 30°06' W 093°19'0 0.0
2017-Dec-25 18:30N 30°06' W 093°19'0 0.0
2017-Dec-25 18:00N 30°06' W 093°19'0 0.0
2017-Dec-25 17:30N 30°06' W 093°19'0 0.0
2017-Dec-25 17:00N 30°06' W 093°19'0 0.0
2017-Dec-25 16:31N 30°06' W 093°19'0 0.0
2017-Dec-25 16:00N 30°06' W 093°19'0 0.0
2017-Dec-25 15:30N 30°06' W 093°19'0 0.0
2017-Dec-25 15:00N 30°06' W 093°19'0 0.0
2017-Dec-25 14:30N 30°06' W 093°19'0 0.0
2017-Dec-25 14:00N 30°06' W 093°19'0 0.0
2017-Dec-25 13:31N 30°06' W 093°19'0 0.0
2017-Dec-25 12:58N 30°06' W 093°19'0 0.0
2017-Dec-25 12:28N 30°06' W 093°19'0 0.0
2017-Dec-25 11:58N 30°06' W 093°19'0 0.0
2017-Dec-25 11:28N 30°06' W 093°19'0 0.0
2017-Dec-25 10:58N 30°06' W 093°19'0 0.0
2017-Dec-25 10:28N 30°06' W 093°19'0 0.0
2017-Dec-25 09:58N 30°06' W 093°19'0 0.0
2017-Dec-25 09:28N 30°06' W 093°19'0 0.0
2017-Dec-25 08:58N 30°06' W 093°19'0 0.0
2017-Dec-25 08:28N 30°06' W 093°19'0 0.0
2017-Dec-25 07:58N 30°06' W 093°19'0 0.0
2017-Dec-25 07:28N 30°06' W 093°19'0 0.0
2017-Dec-25 06:58N 30°06' W 093°19'0 0.0
2017-Dec-25 06:28N 30°06' W 093°19'0 0.0
2017-Dec-25 05:58N 30°06' W 093°19'0 0.0
2017-Dec-25 05:28N 30°06' W 093°19'0 0.0
2017-Dec-25 04:58N 30°06' W 093°19'0 0.1
2017-Dec-25 04:28N 30°06' W 093°19'0 0.0
2017-Dec-25 03:58N 30°06' W 093°19'0 0.1
2017-Dec-25 03:28N 30°06' W 093°19'0 0.0
2017-Dec-25 02:58N 30°06' W 093°19'0 0.0
2017-Dec-25 02:28N 30°06' W 093°19'0 0.0
2017-Dec-25 01:58N 30°06' W 093°19'0 0.0
2017-Dec-25 01:28N 30°06' W 093°19'0 0.6
2017-Dec-25 01:00N 30°06' W 093°19'3 5.3
2017-Dec-25 00:30N 30°04' W 093°21'1 1.9
2017-Dec-24 23:59N 30°04' W 093°22'0 0.1
2017-Dec-24 23:29N 30°04' W 093°22'2 3.5
2017-Dec-24 23:01N 30°04' W 093°24'3 5.1
2017-Dec-24 22:31N 30°04' W 093°27'2 4.5
2017-Dec-24 22:01N 30°04' W 093°29'2 4.7
2017-Dec-24 21:30N 30°04' W 093°32'3 5.0
2017-Dec-24 21:00N 30°04' W 093°35'75 3.7
2017-Dec-24 00:23N 29°33' W 094°55'3 7.0
2017-Dec-23 23:59N 29°35' W 094°56'3 6.9
2017-Dec-23 23:30N 29°38' W 094°58'3 6.4
2017-Dec-23 23:01N 29°41' W 094°59'8 0.3
2017-Dec-22 20:27N 29°44' W 095°08'3 0.1
2017-Dec-21 19:41N 29°45' W 095°12'2 4.4
2017-Dec-21 19:13N 29°44' W 095°09'1 4.7
2017-Dec-21 19:00N 29°44' W 095°08'4 4.1
2017-Dec-21 17:55N 29°44' W 095°03'2 4.9
2017-Dec-21 17:30N 29°43' W 095°01'2 4.9
2017-Dec-21 17:00N 29°41' W 094°59'3 5.5
2017-Dec-21 16:30N 29°39' W 094°58'3 6.1
2017-Dec-21 16:00N 29°36' W 094°57'3 5.9
2017-Dec-21 15:30N 29°33' W 094°55'13 2.0
2017-Dec-21 09:11N 29°24' W 094°45'1 2.6
2017-Dec-21 08:59N 29°25' W 094°44'3 4.9
2017-Dec-21 08:27N 29°26' W 094°42'2 3.7
2017-Dec-21 08:00N 29°27' W 094°40'0 0.2
2017-Dec-21 07:30N 29°27' W 094°40'0 0.2
2017-Dec-21 07:00N 29°27' W 094°40'0 0.0
2017-Dec-21 06:29N 29°27' W 094°40'0 0.0
2017-Dec-21 06:00N 29°27' W 094°40'4 2.3
2017-Dec-21 04:18N 29°25' W 094°44'0 0.0
2017-Dec-21 04:00N 29°25' W 094°44'29 2.3
2017-Dec-20 15:34N 29°47' W 095°05'0 0.0
2017-Dec-20 15:16N 29°47' W 095°05'  
Track history (hours):
 
Tides and Currents Weather Stations Pressure Air Temp Water Temp Dewpoint Dewpoint Depression Visibility Wind Speed Wind Dir Waves Ship Positions

Gregory

Owner: Enterprise Marine Services, LLC, San Antonio, TX. More information available from US FCC via Universal Licensing System and Coast Guard Vessel Documentation Center.

Last reported at 2017-Dec-30 05:16 UTC. Time now 2018-Feb-22 07:21 UTC.
Position N 29°33' W 090°24'.
Warning: this ship's position is 54 days out of date.

Length 21 m; draft 3 m.

Type: . MMSI: 367003370.

Date/timePositionNaut miles runAvg speedWind from/ knotsBaromVisibWave heightAir tempDewpointWater temp
2017-Dec-30 05:16N 29°33' W 090°24'2 5.7
2017-Dec-30 05:00N 29°33' W 090°26'3 5.6
2017-Dec-30 04:30N 29°34' W 090°29'3 5.6
2017-Dec-30 04:00N 29°34' W 090°32'3 5.5
2017-Dec-30 03:30N 29°35' W 090°35'3 5.2
2017-Dec-30 03:00N 29°35' W 090°38'2 4.8
2017-Dec-30 02:30N 29°36' W 090°41'2 3.2
2017-Dec-30 02:00N 29°36' W 090°43'2 4.3
2017-Dec-30 01:30N 29°34' W 090°43'1 2.6
2017-Dec-30 01:00N 29°33' W 090°42'1 1.5
2017-Dec-30 00:30N 29°34' W 090°43'1 2.1
2017-Dec-30 00:00N 29°35' W 090°43'0 0.0
2017-Dec-29 23:30N 29°35' W 090°43'0 0.0
2017-Dec-29 23:01N 29°35' W 090°43'0 0.0
2017-Dec-29 22:30N 29°35' W 090°43'0 0.0
2017-Dec-29 22:00N 29°35' W 090°43'1 2.3
2017-Dec-29 21:30N 29°34' W 090°43'0 0.2
2017-Dec-29 21:00N 29°34' W 090°43'0 0.0
2017-Dec-29 20:30N 29°34' W 090°43'0 0.2
2017-Dec-29 20:00N 29°34' W 090°43'0 0.0
2017-Dec-29 19:30N 29°34' W 090°43'0 0.0
2017-Dec-29 19:00N 29°34' W 090°43'0 0.0
2017-Dec-29 18:30N 29°34' W 090°43'0 0.0
2017-Dec-29 18:00N 29°34' W 090°43'0 0.0
2017-Dec-29 17:30N 29°34' W 090°43'0 0.0
2017-Dec-29 17:00N 29°34' W 090°43'0 0.0
2017-Dec-29 16:30N 29°34' W 090°43'0 0.0
2017-Dec-29 16:00N 29°34' W 090°43'0 0.0
2017-Dec-29 15:30N 29°34' W 090°43'0 0.0
2017-Dec-29 15:00N 29°34' W 090°43'0 0.0
2017-Dec-29 14:30N 29°34' W 090°43'0 0.0
2017-Dec-29 14:00N 29°34' W 090°43'0 0.0
2017-Dec-29 13:30N 29°34' W 090°43'0 0.0
2017-Dec-29 13:00N 29°34' W 090°43'0 0.0
2017-Dec-29 12:30N 29°34' W 090°43'0 0.0
2017-Dec-29 12:00N 29°34' W 090°43'0 0.0
2017-Dec-29 11:30N 29°34' W 090°43'0 0.0
2017-Dec-29 11:00N 29°34' W 090°43'0 0.0
2017-Dec-29 10:30N 29°34' W 090°43'0 0.0
2017-Dec-29 10:00N 29°34' W 090°43'0 0.0
2017-Dec-29 09:30N 29°34' W 090°43'0 0.0
2017-Dec-29 09:00N 29°34' W 090°43'0 0.0
2017-Dec-29 08:30N 29°34' W 090°43'0 0.0
2017-Dec-29 08:00N 29°34' W 090°43'0 0.0
2017-Dec-29 07:30N 29°34' W 090°43'0 0.0
2017-Dec-29 06:59N 29°34' W 090°43'0 0.0
2017-Dec-29 06:19N 29°34' W 090°43'0 0.0
2017-Dec-29 05:57N 29°34' W 090°43'0 0.0
2017-Dec-29 05:30N 29°34' W 090°43'0 0.0
2017-Dec-29 04:50N 29°34' W 090°43'0 0.0
2017-Dec-29 04:29N 29°34' W 090°43'0 0.0
2017-Dec-29 03:55N 29°34' W 090°43'0 0.0
2017-Dec-29 03:29N 29°34' W 090°43'0 0.0
2017-Dec-29 02:48N 29°34' W 090°43'1 0.8
2017-Dec-29 01:33N 29°34' W 090°44'3 6.4
2017-Dec-29 01:06N 29°32' W 090°47'1 3.5
2017-Dec-29 00:53N 29°32' W 090°47'4 5.8
2017-Dec-29 00:10N 29°32' W 090°52'2 6.8
2017-Dec-28 23:57N 29°33' W 090°54'3 7.1
2017-Dec-28 23:30N 29°34' W 090°57'55 1.2
2017-Dec-27 00:07N 29°50' W 091°57'1 6.9
2017-Dec-26 23:57N 29°50' W 091°59'3 7.0
2017-Dec-26 23:30N 29°49' W 092°02'3 7.0
2017-Dec-26 23:00N 29°48' W 092°06'3 6.8
2017-Dec-26 22:30N 29°47' W 092°10'2 4.8
2017-Dec-26 22:00N 29°47' W 092°12'1 1.0
2017-Dec-26 21:30N 29°47' W 092°13'0 0.6
2017-Dec-26 21:00N 29°47' W 092°13'0 0.0
2017-Dec-26 20:30N 29°47' W 092°13'0 0.0
2017-Dec-26 20:00N 29°47' W 092°13'0 0.0
2017-Dec-26 19:30N 29°47' W 092°13'0 0.0
2017-Dec-26 19:00N 29°47' W 092°13'0 0.0
2017-Dec-26 18:30N 29°47' W 092°13'2 4.1
2017-Dec-26 18:00N 29°48' W 092°15'3 6.1
2017-Dec-26 17:30N 29°50' W 092°18'3 5.2
2017-Dec-26 16:53N 29°51' W 092°22'40 4.7
2017-Dec-26 08:26N 29°56' W 093°07'2 5.2
2017-Dec-26 07:59N 29°56' W 093°10'3 5.8
2017-Dec-26 07:30N 29°58' W 093°12'2 4.8
2017-Dec-26 07:00N 30°00' W 093°14'2 3.1
2017-Dec-26 06:30N 30°02' W 093°14'0 0.0
2017-Dec-26 06:00N 30°02' W 093°14'0 0.3
2017-Dec-26 05:30N 30°02' W 093°14'0 0.1
2017-Dec-26 05:00N 30°02' W 093°14'2 3.3
2017-Dec-26 04:30N 30°03' W 093°16'2 4.2
2017-Dec-26 04:00N 30°05' W 093°17'1 2.3
2017-Dec-26 03:30N 30°05' W 093°18'1 2.0
2017-Dec-26 03:00N 30°06' W 093°19'0 0.2
2017-Dec-26 02:30N 30°06' W 093°19'0 0.0
2017-Dec-26 02:00N 30°06' W 093°19'0 0.0
2017-Dec-26 01:30N 30°06' W 093°19'0 0.0
2017-Dec-26 01:00N 30°06' W 093°19'0 0.0
2017-Dec-26 00:30N 30°06' W 093°19'0 0.0
2017-Dec-26 00:00N 30°06' W 093°19'0 0.0
2017-Dec-25 23:30N 30°06' W 093°19'0 0.0
2017-Dec-25 23:00N 30°06' W 093°19'0 0.0
2017-Dec-25 22:30N 30°06' W 093°19'0 0.0
2017-Dec-25 22:00N 30°06' W 093°19'0 0.0
2017-Dec-25 21:30N 30°06' W 093°19'0 0.0
2017-Dec-25 21:00N 30°06' W 093°19'0 0.0
2017-Dec-25 20:30N 30°06' W 093°19'0 0.0
2017-Dec-25 20:00N 30°06' W 093°19'0 0.0
2017-Dec-25 19:30N 30°06' W 093°19'0 0.0
2017-Dec-25 19:00N 30°06' W 093°19'0 0.0
2017-Dec-25 18:30N 30°06' W 093°19'0 0.0
2017-Dec-25 18:00N 30°06' W 093°19'0 0.0
2017-Dec-25 17:30N 30°06' W 093°19'0 0.0
2017-Dec-25 17:00N 30°06' W 093°19'0 0.0
2017-Dec-25 16:31N 30°06' W 093°19'0 0.0
2017-Dec-25 16:00N 30°06' W 093°19'0 0.0
2017-Dec-25 15:30N 30°06' W 093°19'0 0.0
2017-Dec-25 15:00N 30°06' W 093°19'0 0.0
2017-Dec-25 14:30N 30°06' W 093°19'0 0.0
2017-Dec-25 14:00N 30°06' W 093°19'0 0.0
2017-Dec-25 13:31N 30°06' W 093°19'0 0.0
2017-Dec-25 12:58N 30°06' W 093°19'0 0.0
2017-Dec-25 12:28N 30°06' W 093°19'0 0.0
2017-Dec-25 11:58N 30°06' W 093°19'0 0.0
2017-Dec-25 11:28N 30°06' W 093°19'0 0.0
2017-Dec-25 10:58N 30°06' W 093°19'0 0.0
2017-Dec-25 10:28N 30°06' W 093°19'0 0.0
2017-Dec-25 09:58N 30°06' W 093°19'0 0.0
2017-Dec-25 09:28N 30°06' W 093°19'0 0.0
2017-Dec-25 08:58N 30°06' W 093°19'0 0.0
2017-Dec-25 08:28N 30°06' W 093°19'0 0.0
2017-Dec-25 07:58N 30°06' W 093°19'0 0.0
2017-Dec-25 07:28N 30°06' W 093°19'0 0.0
2017-Dec-25 06:58N 30°06' W 093°19'0 0.0
2017-Dec-25 06:28N 30°06' W 093°19'0 0.0
2017-Dec-25 05:58N 30°06' W 093°19'0 0.0
2017-Dec-25 05:28N 30°06' W 093°19'0 0.0
2017-Dec-25 04:58N 30°06' W 093°19'0 0.1
2017-Dec-25 04:28N 30°06' W 093°19'0 0.0
2017-Dec-25 03:58N 30°06' W 093°19'0 0.1
2017-Dec-25 03:28N 30°06' W 093°19'0 0.0
2017-Dec-25 02:58N 30°06' W 093°19'0 0.0
2017-Dec-25 02:28N 30°06' W 093°19'0 0.0
2017-Dec-25 01:58N 30°06' W 093°19'0 0.0
2017-Dec-25 01:28N 30°06' W 093°19'0 0.6
2017-Dec-25 01:00N 30°06' W 093°19'3 5.3
2017-Dec-25 00:30N 30°04' W 093°21'1 1.9
2017-Dec-24 23:59N 30°04' W 093°22'0 0.1
2017-Dec-24 23:29N 30°04' W 093°22'2 3.5
2017-Dec-24 23:01N 30°04' W 093°24'3 5.1
2017-Dec-24 22:31N 30°04' W 093°27'2 4.5
2017-Dec-24 22:01N 30°04' W 093°29'2 4.7
2017-Dec-24 21:30N 30°04' W 093°32'3 5.0
2017-Dec-24 21:00N 30°04' W 093°35'75 3.7
2017-Dec-24 00:23N 29°33' W 094°55'3 7.0
2017-Dec-23 23:59N 29°35' W 094°56'3 6.9
2017-Dec-23 23:30N 29°38' W 094°58'3 6.4
2017-Dec-23 23:01N 29°41' W 094°59'8 0.3
2017-Dec-22 20:27N 29°44' W 095°08'3 0.1
2017-Dec-21 19:41N 29°45' W 095°12'2 4.4
2017-Dec-21 19:13N 29°44' W 095°09'1 4.7
2017-Dec-21 19:00N 29°44' W 095°08'4 4.1
2017-Dec-21 17:55N 29°44' W 095°03'2 4.9
2017-Dec-21 17:30N 29°43' W 095°01'2 4.9
2017-Dec-21 17:00N 29°41' W 094°59'3 5.5
2017-Dec-21 16:30N 29°39' W 094°58'3 6.1
2017-Dec-21 16:00N 29°36' W 094°57'3 5.9
2017-Dec-21 15:30N 29°33' W 094°55'13 2.0
2017-Dec-21 09:11N 29°24' W 094°45'1 2.6
2017-Dec-21 08:59N 29°25' W 094°44'3 4.9
2017-Dec-21 08:27N 29°26' W 094°42'2 3.7
2017-Dec-21 08:00N 29°27' W 094°40'0 0.2
2017-Dec-21 07:30N 29°27' W 094°40'0 0.2
2017-Dec-21 07:00N 29°27' W 094°40'0 0.0
2017-Dec-21 06:29N 29°27' W 094°40'0 0.0
2017-Dec-21 06:00N 29°27' W 094°40'4 2.3
2017-Dec-21 04:18N 29°25' W 094°44'0 0.0
2017-Dec-21 04:00N 29°25' W 094°44'29 2.3
2017-Dec-20 15:34N 29°47' W 095°05'0 0.0
2017-Dec-20 15:16N 29°47' W 095°05'  

Dump ship's entire track history